Latest Weather Observations for Birdsville

IDQ60801

Issued at 3:32 pm EST Sunday 24 May 2015 (issued every 30 minutes, with the page automatically refreshed every 10 minutes)

About weather observations | Map of weather stations | Latest weather observations for QLD | Other Formats
Station Details ID: 038026 Name: BIRDSVILLE AIRPORT Lat: -25.90 Lon: 139.35 Height: 46.6 m
Data from the previous 72 hours. | See also: Recent months at Birdsville
Date/Time
EST
Temp
°C
App
Temp
°C
Dew
Point
Rel
Hum
%
Delta-T
°C
Wind Press
QNH
hPa
Press
MSL
hPa
Rain
since 9 am
mm
Dir
 
Spd
km/h
Gust
km/h
Spd
kts
Gust
kts
24/03:30pm 25.2 21.8 5.9 29 9.9 NE 13 19 7 10 1021.8 - 0.0
24/03:00pm 24.4 21.0 5.7 30 9.5 NNE 13 22 7 12 1022.0 1022.0 0.0
24/02:30pm 24.7 21.3 6.0 30 9.6 NNE 13 20 7 11 1022.1 - 0.0
24/02:00pm 24.2 20.8 6.0 31 9.3 ENE 13 20 7 11 1022.3 - 0.0
24/01:30pm 23.6 19.8 6.0 32 9.0 NE 15 20 8 11 1022.7 - 0.0
24/01:00pm 23.2 19.4 6.0 33 8.8 NE 15 20 8 11 1023.2 - 0.0
24/12:30pm 22.5 18.0 5.9 34 8.4 ENE 19 24 10 13 1023.7 - 0.0
24/12:00pm 21.1 16.9 5.9 37 7.6 NE 17 24 9 13 1024.0 1023.9 0.0
24/11:30am 20.5 16.4 6.4 40 7.1 ENE 17 20 9 11 1024.5 - 0.0
24/11:00am 19.1 14.9 5.9 42 6.5 ENE 17 20 9 11 1025.2 - 0.0
24/10:30am 18.6 13.6 6.4 45 6.1 ENE 22 30 12 16 1025.0 - 0.0
24/10:00am 18.2 13.1 6.1 45 6.0 ENE 22 30 12 16 1025.2 - 0.0
24/09:30am 16.8 12.3 6.0 49 5.3 ENE 19 24 10 13 1025.4 - 0.0
24/09:00am 13.7 10.5 5.1 56 4.0 E 11 17 6 9 1025.1 1024.8 0.0
24/08:30am 12.2 9.3 4.7 60 3.4 ESE 9 11 5 6 1025.0 - 0.0
24/08:00am 10.0 7.4 4.4 68 2.5 SE 7 11 4 6 1024.6 - 0.0
24/07:30am 8.4 5.6 3.3 70 2.2 SE 7 9 4 5 1024.4 - 0.0
24/07:00am 9.1 6.4 3.7 69 2.3 ESE 7 9 4 5 1024.1 - 0.0
24/06:30am 10.0 7.6 4.2 67 2.6 ESE 6 7 3 4 1023.6 - 0.0
24/06:00am 11.0 8.1 4.9 66 2.8 ESE 9 13 5 7 1023.3 1023.1 0.0
24/05:30am 11.0 7.6 4.2 63 3.0 SE 11 13 6 7 1023.3 - 0.0
24/05:00am 11.5 7.8 4.7 63 3.1 ESE 13 17 7 9 1022.9 - 0.0
24/04:30am 11.6 7.5 4.6 62 3.2 ESE 15 19 8 10 1022.9 - 0.0
24/04:00am 11.1 7.5 4.8 65 2.9 SE 13 17 7 9 1023.0 - 0.0
24/03:30am 11.3 7.7 5.0 65 2.9 SE 13 15 7 8 1023.2 - 0.0
24/03:00am 11.1 7.5 5.2 67 2.7 SE 13 15 7 8 1023.5 1023.5 0.0
24/02:30am 11.0 7.7 4.7 65 2.9 SSE 11 13 6 7 1024.2 - 0.0
24/02:00am 11.8 8.7 5.4 65 3.0 SSE 11 15 6 8 1023.7 - 0.0
24/01:30am 12.0 8.5 5.6 65 3.0 SSE 13 15 7 8 1023.7 - 0.0
24/01:00am 12.1 9.0 5.5 64 3.1 SSE 11 13 6 7 1024.1 - 0.0
24/12:30am 12.4 9.3 5.6 63 3.2 SSE 11 13 6 7 1024.2 - 0.0
24/12:00am 13.0 9.9 5.7 61 3.4 SSE 11 13 6 7 1024.2 1024.0 0.0
 
Date/Time
EST
Temp
°C
App
Temp
°C
Dew
Point
Rel
Hum
%
Delta-T
°C
Wind Press
QNH
hPa
Press
MSL
hPa
Rain
since 9 am
mm
Dir
 
Spd
km/h
Gust
km/h
Spd
kts
Gust
kts
23/11:30pm 13.3 10.2 5.7 60 3.6 SSE 11 15 6 8 1024.5 - 0.0
23/11:00pm 13.3 10.6 5.5 59 3.7 SSE 9 11 5 6 1024.6 - 0.0
23/10:30pm 13.9 10.8 5.5 57 4.0 SSE 11 13 6 7 1024.5 - 0.0
23/10:00pm 14.4 11.3 5.5 55 4.2 SSE 11 15 6 8 1024.8 - 0.0
23/09:30pm 14.8 11.3 5.6 54 4.4 SSE 13 15 7 8 1024.7 - 0.0
23/09:00pm 15.5 12.4 5.4 51 4.8 S 11 15 6 8 1024.8 1024.7 0.0
23/08:30pm 15.5 12.0 5.4 51 4.8 SSE 13 15 7 8 1024.7 - 0.0
23/08:00pm 15.5 12.1 3.9 46 5.4 SSE 11 13 6 7 1024.6 - 0.0
23/07:30pm 17.0 14.2 5.0 45 5.7 SSE 9 11 5 6 1024.2 - 0.0
23/07:00pm 17.5 14.6 4.5 42 6.2 SE 9 9 5 5 1024.3 - 0.0
23/06:30pm 18.8 15.1 4.6 39 6.8 SE 13 17 7 9 1023.7 - 0.0
23/06:00pm 20.0 15.4 3.7 34 7.7 ESE 17 20 9 11 1023.7 1023.6 0.0
23/05:30pm 20.5 16.6 3.3 32 8.2 SE 13 20 7 11 1023.9 - 0.0
23/05:00pm 20.6 16.2 2.9 31 8.3 ESE 15 22 8 12 1023.7 - 0.0
23/04:30pm 20.8 16.4 2.6 30 8.5 ESE 15 22 8 12 1023.5 - 0.0
23/04:00pm 20.8 16.5 3.1 31 8.4 ESE 15 22 8 12 1023.6 - 0.0
23/03:30pm 20.6 15.9 2.9 31 8.3 ESE 17 24 9 13 1023.6 - 0.0
23/03:00pm 20.3 15.3 3.5 33 7.9 SE 19 22 10 12 1023.8 1023.7 0.0
23/02:30pm 20.1 15.4 3.3 33 7.9 E 17 22 9 12 1024.0 - 0.0
23/02:00pm 20.6 15.7 4.2 34 7.9 ESE 19 24 10 13 1024.2 - 0.0
23/01:30pm 20.2 15.3 3.9 34 7.8 ESE 19 28 10 15 1024.7 - 0.0
23/01:00pm 19.1 14.0 3.3 35 7.4 E 19 30 10 16 1025.3 - 0.0
23/12:30pm 18.9 13.9 3.5 36 7.2 E 19 28 10 15 1026.1 - 0.0
23/12:00pm 18.4 13.4 3.8 38 6.8 E 19 28 10 15 1026.7 1026.8 0.0
23/11:30am 18.5 13.6 5.0 41 6.5 E 20 28 11 15 1027.1 - 0.0
23/11:00am 17.3 12.5 5.6 46 5.7 E 20 28 11 15 1027.5 - 0.0
23/10:30am 16.0 11.1 5.3 49 5.1 E 20 26 11 14 1028.2 - 0.0
23/10:00am 14.2 9.8 5.0 54 4.3 ESE 17 20 9 11 1028.3 - 0.0
23/09:30am 12.4 8.3 4.6 59 3.6 SE 15 17 8 9 1028.5 - 0.0
23/09:00am 9.6 6.0 3.1 64 2.8 SSE 11 15 6 8 1028.3 1028.1 0.0
23/08:30am 8.6 5.0 2.8 67 2.5 S 11 15 6 8 1028.0 - 0.0
23/08:00am 6.9 3.5 1.8 70 2.1 S 9 9 5 5 1027.8 - 0.0
23/07:30am 6.5 3.1 1.8 72 1.9 S 9 11 5 6 1027.5 - 0.0
23/07:00am 6.9 3.5 2.0 71 2.0 S 9 11 5 6 1027.1 - 0.0
23/06:30am 6.9 3.9 1.8 70 2.1 S 7 9 4 5 1026.8 - 0.0
23/06:00am 8.0 4.3 2.3 67 2.4 SSE 11 13 6 7 1026.5 1026.3 0.0
23/05:30am 8.5 4.8 2.5 66 2.5 SSE 11 15 6 8 1026.1 - 0.0
23/05:00am 8.7 4.6 2.3 64 2.7 SSE 13 17 7 9 1026.0 - 0.0
23/04:30am 9.3 5.2 2.4 62 2.9 SSE 13 15 7 8 1026.2 - 0.0
23/04:00am 9.3 5.2 2.4 62 2.9 S 13 15 7 8 1026.1 - 0.0
23/03:30am 9.7 5.6 2.3 60 3.1 S 13 17 7 9 1026.0 - 0.0
23/03:00am 9.8 6.1 2.2 59 3.2 S 11 13 6 7 1026.0 1026.0 0.0
23/02:30am 10.0 5.9 2.4 59 3.2 S 13 15 7 8 1026.4 - 0.0
23/02:00am 10.1 6.8 2.2 58 3.4 S 9 11 5 6 1026.7 - 0.0
23/01:30am 9.2 5.7 1.4 58 3.2 SSW 9 11 5 6 1026.5 - 0.0
23/01:00am 9.0 5.5 1.2 58 3.2 SSW 9 11 5 6 1026.8 - 0.0
23/12:30am 8.8 5.3 1.0 58 3.2 SSW 9 9 5 5 1026.8 - 0.0
23/12:00am 9.9 6.1 1.5 56 3.5 S 11 13 6 7 1027.2 1027.2 0.0
 
Date/Time
EST
Temp
°C
App
Temp
°C
Dew
Point
Rel
Hum
%
Delta-T
°C
Wind Press
QNH
hPa
Press
MSL
hPa
Rain
since 9 am
mm
Dir
 
Spd
km/h
Gust
km/h
Spd
kts
Gust
kts
22/11:30pm 9.9 6.4 1.3 55 3.6 S 9 11 5 6 1027.3 - 0.0
22/11:00pm 10.3 6.4 1.2 53 3.8 S 11 13 6 7 1027.4 - 0.0
22/10:30pm 10.8 6.9 1.1 51 4.0 S 11 13 6 7 1027.5 - 0.0
22/10:00pm 12.5 8.3 1.5 47 4.7 S 13 19 7 10 1027.7 - 0.0
22/09:30pm 13.3 8.8 1.9 46 4.9 S 15 17 8 9 1027.6 - 0.0
22/09:00pm 13.8 9.2 1.5 43 5.3 S 15 19 8 10 1027.3 1027.2 0.0
22/08:30pm 14.0 9.4 1.3 42 5.5 S 15 17 8 9 1027.4 - 0.0
22/08:00pm 14.6 10.3 1.2 40 5.8 S 13 15 7 8 1027.2 - 0.0
22/07:30pm 15.2 10.5 0.6 37 6.3 S 15 19 8 10 1027.0 - 0.0
22/07:00pm 15.8 11.4 0.4 35 6.6 S 13 17 7 9 1026.9 - 0.0
22/06:30pm 16.1 11.3 0.3 34 6.8 S 15 17 8 9 1025.8 - 0.0
22/06:00pm 16.7 10.9 -0.1 32 7.2 SSE 20 30 11 16 1025.0 1025.2 0.0
22/05:30pm 17.2 11.3 -0.5 30 7.6 SSE 20 28 11 15 1025.4 - 0.0
22/05:00pm 17.7 12.0 0.4 31 7.6 S 20 26 11 14 1025.6 - 0.0
22/04:30pm 17.7 11.6 0.4 31 7.6 S 22 28 12 15 1025.7 - 0.0
22/04:00pm 17.9 12.2 0.6 31 7.6 S 20 28 11 15 1025.5 - 0.0
22/03:30pm 18.0 12.7 1.9 34 7.3 S 19 26 10 14 1025.8 - 0.0
22/03:00pm 17.8 12.4 2.2 35 7.0 SSE 20 26 11 14 1026.1 1026.0 0.0
22/02:30pm 17.4 12.2 2.2 36 6.9 SSE 19 26 10 14 1026.3 - 0.0
22/02:00pm 17.5 12.3 3.4 39 6.5 SSE 20 39 11 21 1026.5 - 0.0
22/01:30pm 16.7 11.6 3.0 40 6.3 SE 19 24 10 13 1027.1 - 0.0
22/01:00pm 16.3 11.5 4.4 45 5.6 S 19 28 10 15 1027.4 - 0.0
22/12:30pm 15.5 10.6 3.9 46 5.4 SE 19 22 10 12 1028.0 - 0.0
22/12:00pm 14.8 9.9 3.9 48 5.0 SE 19 26 10 14 1028.4 1028.4 0.0
22/11:30am 14.5 9.6 4.2 50 4.7 SE 19 26 10 14 1028.8 - 0.0
22/11:00am 14.1 9.3 4.7 53 4.4 SE 19 24 10 13 1029.1 - 0.0
22/10:30am 13.6 8.8 4.7 55 4.1 SE 19 26 10 14 1029.1 - 0.0
22/10:00am 12.3 7.1 3.8 56 3.8 SE 20 24 11 13 1029.0 - 0.0
22/09:30am 11.3 6.4 4.1 61 3.2 SSE 19 24 10 13 1029.1 - 0.0
22/09:00am 9.0 5.4 3.2 67 2.5 SSE 11 17 6 9 1029.0 1028.8 0.2
22/08:30am 8.2 4.7 3.3 71 2.1 S 11 13 6 7 1028.6 - 0.2
22/08:00am 7.0 3.4 2.7 74 1.8 S 11 15 6 8 1028.1 - 0.2
22/07:30am 6.4 2.4 2.7 77 1.5 S 13 15 7 8 1027.7 - 0.2
22/07:00am 5.1 1.3 1.6 78 1.4 S 11 13 6 7 1027.4 - 0.2
22/06:30am 5.6 2.2 1.7 76 1.6 SSW 9 11 5 6 1027.0 - 0.2
22/06:00am 5.6 2.2 1.7 76 1.6 SSW 9 9 5 5 1026.7 1026.5 0.2
22/05:30am 5.8 2.0 1.7 75 1.6 SSW 11 11 6 6 1026.5 - 0.2
22/05:00am 5.7 1.9 2.0 77 1.5 SSW 11 13 6 7 1026.3 - 0.2
22/04:30am 5.8 2.0 1.9 76 1.6 SW 11 13 6 7 1026.3 - 0.2
22/04:00am 6.6 2.9 2.5 75 1.7 SW 11 13 6 7 1026.5 - 0.2
22/03:30am 6.7 3.0 2.4 74 1.8 SW 11 11 6 6 1026.5 - 0.2
22/03:00am 6.8 2.7 2.5 74 1.8 SW 13 11 7 6 1026.5 1026.5 0.2
22/02:30am 6.8 2.7 2.5 74 1.8 SW 13 15 7 8 1026.6 - 0.2
22/02:00am 7.0 3.3 2.5 73 1.9 SW 11 13 6 7 1026.5 - 0.2
22/01:30am 7.9 3.9 2.8 70 2.1 SW 13 13 7 7 1026.8 - 0.2
22/01:00am 8.2 4.2 2.9 69 2.2 SW 13 13 7 7 1026.8 - 0.2
22/12:30am 8.3 4.7 2.8 68 2.3 SW 11 13 6 7 1026.9 - 0.2
22/12:00am 8.5 4.9 2.7 67 2.4 SW 11 13 6 7 1027.1 1027.0 0.2
 
Date/Time
EST
Temp
°C
App
Temp
°C
Dew
Point
Rel
Hum
%
Delta-T
°C
Wind Press
QNH
hPa
Press
MSL
hPa
Rain
since 9 am
mm
Dir
 
Spd
km/h
Gust
km/h
Spd
kts
Gust
kts
21/11:30pm 8.8 4.8 2.6 65 2.6 SW 13 13 7 7 1027.1 - 0.2
21/11:00pm 9.1 5.0 2.4 63 2.8 SW 13 13 7 7 1027.1 - 0.2
21/10:30pm 9.7 5.7 2.6 61 3.0 SW 13 15 7 8 1027.2 - 0.2
21/10:00pm 10.6 6.5 2.4 57 3.5 SW 13 15 7 8 1027.1 - 0.2
21/09:30pm 11.0 7.3 2.6 56 3.6 SW 11 13 6 7 1027.0 - 0.2
21/09:00pm 11.6 7.5 2.4 53 3.9 SW 13 15 7 8 1026.7 1026.6 0.2
21/08:30pm 12.5 8.0 2.4 50 4.4 SSW 15 17 8 9 1026.4 - 0.2
21/08:00pm 13.4 8.6 2.6 48 4.8 SSW 17 20 9 11 1026.0 - 0.2
21/07:30pm 14.3 9.5 2.5 45 5.2 SSW 17 19 9 10 1025.5 - 0.2
21/07:00pm 15.4 10.0 2.2 41 5.9 SSW 20 26 11 14 1024.9 - 0.2
21/06:30pm 16.3 10.8 1.6 37 6.5 SSW 20 26 11 14 1024.5 - 0.2
21/06:00pm 17.7 10.6 1.2 33 7.3 SSW 28 32 15 17 1024.3 1024.1 0.2
21/05:30pm 18.2 10.6 0.8 31 7.7 SSW 30 37 16 20 1024.1 - 0.2
21/05:00pm 18.9 11.1 1.4 31 7.9 SSW 32 39 17 21 1024.0 - 0.2
21/04:30pm 19.4 12.8 1.9 31 8.0 S 26 33 14 18 1023.8 - 0.2
21/04:00pm 19.3 11.9 1.8 31 8.0 SSW 30 35 16 19 1023.8 - 0.2

Other Formats:

Comma delimited format used in spreadsheet applications
http://www.bom.gov.au/fwo/IDQ60801/IDQ60801.95482.axf

JavaScript Object Notation format (JSON) in row-major order
http://www.bom.gov.au/fwo/IDQ60801/IDQ60801.95482.json